Time;durP1;ratioP1;P1;durP2;ratioP2;P2;SDS_P1;SDS_P2;PMS_P1;PMS_P2;Temp;Humidity;BMP_temperature;BMP_pressure;BME280_temperature;BME280_humidity;BME280_pressure;Samples;Min_cycle;Max_cycle;Signal;HPM_P1;HPM_P2
2021/11/23 00:01:50;;;;;;;16.10;9.50;;;4.40;97.60;;;;;;5072372;28;20600;-86
2021/11/23 00:04:17;;;;;;;12.27;9.70;;;4.50;97.70;;;;;;5071767;28;20208;-87
2021/11/23 00:06:44;;;;;;;12.27;9.90;;;4.40;97.80;;;;;;5071988;28;20450;-86
2021/11/23 00:09:11;;;;;;;12.07;9.90;;;4.40;97.60;;;;;;5061657;28;20243;-87
2021/11/23 00:11:39;;;;;;;12.07;10.27;;;4.40;97.70;;;;;;5070379;28;20243;-87
2021/11/23 00:14:06;;;;;;;11.20;9.63;;;4.40;97.80;;;;;;5069447;28;20207;-88
2021/11/23 00:16:33;;;;;;;10.40;8.53;;;4.40;97.90;;;;;;5046672;28;20569;-87
2021/11/23 00:19:00;;;;;;;11.37;8.90;;;4.40;98.00;;;;;;5064210;28;20200;-88
2021/11/23 00:21:27;;;;;;;10.60;8.83;;;4.40;97.60;;;;;;5059865;28;20232;-86
2021/11/23 00:23:54;;;;;;;11.07;9.17;;;4.40;97.30;;;;;;5062527;28;20205;-86
2021/11/23 00:26:22;;;;;;;12.10;9.27;;;4.30;97.20;;;;;;5066232;28;20236;-87
2021/11/23 00:28:51;;;;;;;11.87;8.53;;;4.30;97.30;;;;;;5065363;28;20655;-87
2021/11/23 00:31:18;;;;;;;11.07;8.50;;;4.30;97.10;;;;;;5062862;28;20236;-87
2021/11/23 00:33:45;;;;;;;9.40;8.40;;;4.30;97.20;;;;;;5068456;28;20208;-87
2021/11/23 00:36:12;;;;;;;9.47;8.10;;;4.30;97.40;;;;;;5064805;28;20231;-85
2021/11/23 00:38:42;;;;;;;10.40;8.60;;;4.30;97.20;;;;;;5077313;28;20209;-87
2021/11/23 00:41:09;;;;;;;12.43;8.90;;;4.20;97.50;;;;;;5071589;28;20229;-85
2021/11/23 00:43:36;;;;;;;11.07;8.67;;;4.20;97.50;;;;;;5065076;28;20227;-88
2021/11/23 00:46:04;;;;;;;9.73;8.57;;;4.20;97.80;;;;;;5070613;28;20220;-87
2021/11/23 00:48:31;;;;;;;9.23;8.17;;;4.20;97.50;;;;;;5081447;28;20551;-88
2021/11/23 00:50:59;;;;;;;10.47;8.43;;;4.20;97.30;;;;;;5073390;28;20220;-88
2021/11/23 00:53:25;;;;;;;11.63;8.07;;;4.20;97.20;;;;;;5084917;28;20215;-87
2021/11/23 00:55:52;;;;;;;10.20;8.70;;;4.20;97.20;;;;;;5076454;28;20229;-86
2021/11/23 00:58:20;;;;;;;10.60;8.83;;;4.10;97.20;;;;;;5068693;28;20208;-87
2021/11/23 01:00:47;;;;;;;10.93;8.53;;;4.20;97.10;;;;;;5068646;28;20213;-86
2021/11/23 01:03:17;;;;;;;10.80;8.03;;;4.10;97.30;;;;;;5071041;28;20225;-87
2021/11/23 01:05:45;;;;;;;11.83;8.50;;;4.10;97.20;;;;;;5076333;28;20713;-87
2021/11/23 01:08:12;;;;;;;9.93;7.83;;;4.10;97.20;;;;;;5075167;28;20626;-87
2021/11/23 01:10:39;;;;;;;9.83;8.23;;;4.10;96.80;;;;;;5069229;28;20714;-86
2021/11/23 01:13:07;;;;;;;9.80;7.57;;;4.10;96.80;;;;;;5065479;28;20213;-87
2021/11/23 01:15:34;;;;;;;12.37;8.57;;;4.10;96.80;;;;;;5072078;28;20716;-87
2021/11/23 01:18:01;;;;;;;9.77;8.67;;;4.10;96.60;;;;;;5077678;28;20588;-86
2021/11/23 01:20:30;;;;;;;9.73;8.10;;;4.00;96.60;;;;;;5073424;28;20224;-86
2021/11/23 01:22:58;;;;;;;10.47;8.33;;;4.00;96.60;;;;;;5071023;28;20273;-86
2021/11/23 01:25:25;;;;;;;8.50;7.20;;;3.90;96.60;;;;;;5076374;28;20262;-86
2021/11/23 01:27:52;;;;;;;9.20;7.80;;;3.90;97.00;;;;;;5069882;28;20661;-87
2021/11/23 01:30:20;;;;;;;12.43;8.57;;;3.80;96.60;;;;;;5066562;28;20236;-87
2021/11/23 01:32:47;;;;;;;10.23;8.13;;;3.80;96.50;;;;;;5074496;28;20209;-87
2021/11/23 01:35:14;;;;;;;10.13;7.93;;;3.70;96.20;;;;;;5072857;28;20233;-87
2021/11/23 01:37:44;;;;;;;9.67;7.77;;;3.70;96.40;;;;;;5066746;28;20229;-87
2021/11/23 01:40:13;;;;;;;11.17;8.30;;;3.70;96.10;;;;;;5072877;28;20221;-86
2021/11/23 01:42:40;;;;;;;9.97;8.20;;;3.60;96.20;;;;;;5066867;28;20225;-88
2021/11/23 01:45:09;;;;;;;9.93;8.27;;;3.60;96.10;;;;;;5076539;28;20282;-88
2021/11/23 01:47:36;;;;;;;10.40;8.30;;;3.60;96.30;;;;;;5066543;28;20198;-86
2021/11/23 01:50:05;;;;;;;11.53;8.07;;;3.60;96.00;;;;;;5076035;28;20667;-84
2021/11/23 01:52:32;;;;;;;10.67;8.50;;;3.50;96.00;;;;;;5072442;28;20320;-84
2021/11/23 01:55:02;;;;;;;10.33;8.00;;;3.50;96.00;;;;;;5070983;28;20219;-84
2021/11/23 01:57:29;;;;;;;10.37;7.93;;;3.40;96.40;;;;;;5074397;28;20208;-84
2021/11/23 01:59:56;;;;;;;10.23;8.53;;;3.40;96.50;;;;;;5075439;28;20228;-83
2021/11/23 02:02:23;;;;;;;9.00;7.63;;;3.40;96.20;;;;;;5079825;28;20240;-84
2021/11/23 02:04:50;;;;;;;10.80;8.33;;;3.40;96.30;;;;;;5077281;28;20570;-86
2021/11/23 02:07:18;;;;;;;8.87;7.57;;;3.50;96.20;;;;;;5075050;28;20205;-86
2021/11/23 02:09:45;;;;;;;12.43;8.20;;;3.50;95.90;;;;;;5082355;28;20679;-84
2021/11/23 02:12:14;;;;;;;10.03;8.37;;;3.50;95.70;;;;;;5086147;28;20291;-84
2021/11/23 02:14:41;;;;;;;10.77;7.90;;;3.50;95.70;;;;;;5082827;28;20201;-84
2021/11/23 02:17:08;;;;;;;9.23;7.70;;;3.40;95.80;;;;;;5071230;28;20208;-84
2021/11/23 02:19:37;;;;;;;11.23;8.23;;;3.50;95.60;;;;;;5065399;28;20209;-85
2021/11/23 02:22:06;;;;;;;10.17;7.57;;;3.40;95.80;;;;;;5063829;28;20221;-86
2021/11/23 02:24:32;;;;;;;9.87;8.07;;;3.30;96.00;;;;;;5070520;28;20201;-84
2021/11/23 02:27:01;;;;;;;11.07;7.40;;;3.30;96.10;;;;;;5073099;28;20190;-86
2021/11/23 02:29:28;;;;;;;9.50;7.83;;;3.40;96.10;;;;;;5070131;28;20201;-86
2021/11/23 02:31:55;;;;;;;9.83;7.90;;;3.40;95.60;;;;;;5070330;28;20207;-85
2021/11/23 02:34:22;;;;;;;10.60;8.10;;;3.40;95.50;;;;;;5075087;28;20219;-84
2021/11/23 02:36:49;;;;;;;10.13;7.40;;;3.40;95.50;;;;;;5081976;28;20221;-84
2021/11/23 02:39:18;;;;;;;9.47;7.13;;;3.40;95.50;;;;;;5077741;28;20211;-86
2021/11/23 02:41:45;;;;;;;10.77;8.30;;;3.50;95.30;;;;;;5071679;28;20598;-86
2021/11/23 02:44:12;;;;;;;8.87;7.27;;;3.50;94.90;;;;;;5058303;28;20561;-85
2021/11/23 02:46:39;;;;;;;9.33;7.80;;;3.50;94.80;;;;;;5067589;28;20244;-85
2021/11/23 02:49:06;;;;;;;11.67;7.77;;;3.50;94.80;;;;;;5058831;28;20663;-85
2021/11/23 02:51:36;;;;;;;9.83;7.70;;;3.40;95.20;;;;;;5059732;28;20253;-86
2021/11/23 02:54:03;;;;;;;10.00;7.90;;;3.50;95.20;;;;;;5063155;28;20721;-85
2021/11/23 02:56:31;;;;;;;10.10;7.63;;;3.40;95.20;;;;;;5070120;28;20231;-87
2021/11/23 02:58:59;;;;;;;9.03;7.20;;;3.40;95.50;;;;;;5071400;28;20276;-87
2021/11/23 03:01:27;;;;;;;12.40;8.33;;;3.40;95.30;;;;;;5062606;28;20687;-86
2021/11/23 03:03:55;;;;;;;10.07;7.93;;;3.40;95.40;;;;;;5070227;28;20576;-86
2021/11/23 03:06:23;;;;;;;9.27;7.40;;;3.50;95.10;;;;;;5069016;28;20228;-86
2021/11/23 03:08:51;;;;;;;8.37;7.17;;;3.60;94.80;;;;;;5067488;28;20653;-87
2021/11/23 03:11:20;;;;;;;9.83;7.77;;;3.50;94.70;;;;;;5065092;28;20229;-88
2021/11/23 03:13:49;;;;;;;9.17;7.73;;;3.50;94.80;;;;;;5068680;28;20494;-87
2021/11/23 03:16:16;;;;;;;9.97;7.87;;;3.40;95.10;;;;;;5067772;28;20228;-86
2021/11/23 03:18:43;;;;;;;9.30;7.63;;;3.50;95.40;;;;;;5068479;28;20676;-87
2021/11/23 03:21:10;;;;;;;10.80;8.07;;;3.40;95.40;;;;;;5068895;28;20228;-87
2021/11/23 03:23:37;;;;;;;11.47;7.80;;;3.40;95.40;;;;;;5065788;28;20217;-86
2021/11/23 03:26:05;;;;;;;9.27;7.77;;;3.30;95.70;;;;;;5067798;28;20227;-87
2021/11/23 03:28:32;;;;;;;10.73;8.27;;;3.20;95.90;;;;;;5067306;28;20198;-87
2021/11/23 03:31:00;;;;;;;13.27;8.20;;;3.20;95.60;;;;;;5068493;28;20225;-87
2021/11/23 03:33:27;;;;;;;9.17;7.33;;;3.10;95.60;;;;;;5068841;28;20197;-87
2021/11/23 03:35:54;;;;;;;11.00;7.90;;;3.20;95.90;;;;;;5069831;28;20235;-87
2021/11/23 03:38:21;;;;;;;10.20;8.10;;;3.20;95.90;;;;;;5063530;28;20205;-87
2021/11/23 03:40:48;;;;;;;13.73;8.43;;;3.20;95.80;;;;;;5063598;28;20232;-87
2021/11/23 03:43:16;;;;;;;11.97;8.10;;;3.20;95.90;;;;;;5064791;28;20692;-86
2021/11/23 03:45:43;;;;;;;11.97;8.60;;;3.30;96.30;;;;;;5060969;28;20224;-87
2021/11/23 03:48:12;;;;;;;10.90;8.40;;;3.20;95.90;;;;;;5069358;28;20632;-87
2021/11/23 03:50:40;;;;;;;11.90;8.50;;;3.20;96.10;;;;;;5066699;28;20224;-87
2021/11/23 03:53:07;;;;;;;11.30;8.30;;;3.20;95.90;;;;;;5067076;28;20780;-86
2021/11/23 03:55:36;;;;;;;8.60;7.67;;;3.10;95.90;;;;;;5065935;28;20586;-87
2021/11/23 03:58:03;;;;;;;10.07;8.20;;;3.10;95.90;;;;;;5057659;28;20203;-87
2021/11/23 04:00:31;;;;;;;11.53;8.77;;;3.00;96.00;;;;;;5068626;28;20219;-87
2021/11/23 04:02:58;;;;;;;10.90;8.63;;;3.00;96.10;;;;;;5076454;28;20227;-86
2021/11/23 04:05:27;;;;;;;10.03;8.10;;;2.90;96.30;;;;;;5062632;28;20221;-87
2021/11/23 04:07:54;;;;;;;12.73;8.53;;;2.90;96.50;;;;;;5070495;28;20208;-87
2021/11/23 04:10:22;;;;;;;9.70;8.03;;;2.90;96.50;;;;;;5081798;28;20232;-87
2021/11/23 04:12:50;;;;;;;11.47;8.60;;;2.90;96.50;;;;;;5073341;28;20239;-86
2021/11/23 04:15:17;;;;;;;10.93;8.47;;;2.80;96.70;;;;;;5063457;28;20225;-87
2021/11/23 04:17:44;;;;;;;10.77;8.43;;;2.80;97.00;;;;;;5077675;28;20220;-86
2021/11/23 04:20:12;;;;;;;13.50;8.53;;;2.80;97.20;;;;;;5086052;28;20224;-85
2021/11/23 04:22:41;;;;;;;12.50;8.83;;;2.70;97.20;;;;;;5080519;28;20686;-86
2021/11/23 04:25:09;;;;;;;14.27;8.97;;;2.80;97.20;;;;;;5074238;28;20723;-84
2021/11/23 04:27:36;;;;;;;12.47;9.40;;;2.80;97.20;;;;;;5077888;28;20201;-86
2021/11/23 04:30:05;;;;;;;9.97;8.10;;;2.80;97.20;;;;;;5068641;28;20570;-87
2021/11/23 04:32:32;;;;;;;10.47;8.50;;;2.70;97.10;;;;;;5072301;28;20656;-84
2021/11/23 04:34:59;;;;;;;11.00;8.57;;;2.60;97.10;;;;;;5082980;28;20213;-85
2021/11/23 04:37:26;;;;;;;12.37;9.23;;;2.60;97.20;;;;;;5074937;28;20209;-86
2021/11/23 04:39:54;;;;;;;11.33;8.57;;;2.50;97.20;;;;;;5085868;28;20232;-85
2021/11/23 04:42:21;;;;;;;11.93;8.27;;;2.50;97.20;;;;;;5084809;28;20201;-85
2021/11/23 04:44:48;;;;;;;12.57;9.30;;;2.50;97.20;;;;;;5080710;28;20794;-85
2021/11/23 04:47:15;;;;;;;11.90;8.93;;;2.30;97.40;;;;;;5087671;28;20204;-86
2021/11/23 04:49:42;;;;;;;13.07;9.60;;;2.30;97.80;;;;;;5075229;28;20209;-85
2021/11/23 04:52:09;;;;;;;10.83;8.40;;;2.30;97.80;;;;;;5085012;28;20216;-85
2021/11/23 04:54:36;;;;;;;12.43;9.10;;;2.40;97.70;;;;;;5081506;28;20201;-85
2021/11/23 04:57:05;;;;;;;11.13;8.13;;;2.30;97.60;;;;;;5084033;28;20213;-84
2021/11/23 04:59:31;;;;;;;11.83;8.67;;;2.30;97.70;;;;;;5082299;28;20206;-85
2021/11/23 05:01:59;;;;;;;14.70;9.37;;;2.40;97.50;;;;;;5096001;28;20208;-84
2021/11/23 05:04:26;;;;;;;14.77;8.20;;;2.40;97.40;;;;;;5078742;28;20217;-84
2021/11/23 05:06:52;;;;;;;11.10;9.00;;;2.40;97.30;;;;;;5076285;28;20233;-84
2021/11/23 05:09:20;;;;;;;11.03;8.63;;;2.40;97.20;;;;;;5083686;28;20209;-87
2021/11/23 05:11:48;;;;;;;12.50;8.53;;;2.40;97.10;;;;;;5078460;28;20321;-86
2021/11/23 05:14:17;;;;;;;12.77;8.60;;;2.40;97.10;;;;;;5076358;28;20254;-87
2021/11/23 05:16:44;;;;;;;12.67;9.13;;;2.40;97.10;;;;;;5071673;28;20233;-86
2021/11/23 05:19:11;;;;;;;11.90;8.80;;;2.40;97.10;;;;;;5074912;28;20213;-87
2021/11/23 05:21:44;;;;;;;11.57;9.03;;;2.40;97.00;;;;;;5067986;28;20231;-86
2021/11/23 05:24:12;;;;;;;11.23;8.77;;;2.40;96.80;;;;;;5079494;28;20222;-86
2021/11/23 05:26:39;;;;;;;11.90;9.07;;;2.40;97.10;;;;;;5078553;28;20229;-88
2021/11/23 05:29:07;;;;;;;13.83;8.30;;;2.30;96.90;;;;;;5071737;28;20208;-87
2021/11/23 05:31:35;;;;;;;11.13;8.60;;;2.40;97.10;;;;;;5074290;28;20220;-86
2021/11/23 05:34:03;;;;;;;10.97;8.07;;;2.40;96.80;;;;;;5078292;28;20272;-86
2021/11/23 05:36:30;;;;;;;12.77;8.77;;;2.40;96.20;;;;;;5075723;28;20220;-86
2021/11/23 05:38:57;;;;;;;11.23;8.80;;;2.60;96.50;;;;;;5068105;28;20570;-86
2021/11/23 05:41:24;;;;;;;10.70;8.77;;;2.50;96.10;;;;;;5080403;28;20217;-87
2021/11/23 05:43:52;;;;;;;10.73;8.70;;;2.60;96.10;;;;;;5085155;28;20271;-86
2021/11/23 05:46:19;;;;;;;10.70;8.60;;;2.60;95.80;;;;;;5080583;28;20421;-86
2021/11/23 05:48:47;;;;;;;13.00;9.30;;;2.50;95.80;;;;;;5078403;28;20209;-87
2021/11/23 05:51:14;;;;;;;11.37;8.37;;;2.40;95.50;;;;;;5072252;28;20232;-86
2021/11/23 05:53:41;;;;;;;12.30;8.67;;;2.40;95.60;;;;;;5072961;28;20707;-87
2021/11/23 05:56:09;;;;;;;11.87;8.77;;;2.40;95.60;;;;;;5073188;28;20228;-87
2021/11/23 05:58:37;;;;;;;11.00;8.40;;;2.30;95.80;;;;;;5083202;28;20676;-87
2021/11/23 06:01:05;;;;;;;12.60;9.23;;;2.30;95.80;;;;;;5071034;28;20645;-87
2021/11/23 06:03:32;;;;;;;11.57;8.90;;;2.30;95.70;;;;;;5061939;28;20222;-86
2021/11/23 06:06:01;;;;;;;10.47;8.47;;;2.30;95.80;;;;;;5085363;28;20231;-87
2021/11/23 06:08:28;;;;;;;11.30;8.73;;;2.20;95.90;;;;;;5066959;28;20198;-87
2021/11/23 06:10:55;;;;;;;11.47;9.23;;;2.20;96.00;;;;;;5076827;28;20612;-87
2021/11/23 06:13:22;;;;;;;12.37;8.43;;;2.20;96.10;;;;;;5069837;28;20243;-86
2021/11/23 06:15:49;;;;;;;11.53;8.80;;;2.20;96.30;;;;;;5080438;28;20230;-87
2021/11/23 06:18:17;;;;;;;12.50;9.13;;;2.20;96.10;;;;;;5073749;28;20652;-86
2021/11/23 06:20:44;;;;;;;11.53;8.93;;;2.20;96.20;;;;;;5074711;28;20225;-87
2021/11/23 06:23:16;;;;;;;12.40;9.63;;;2.30;95.90;;;;;;5078948;28;20199;-86
2021/11/23 06:25:43;;;;;;;14.37;9.37;;;2.20;96.00;;;;;;5076449;28;20297;-86
2021/11/23 06:28:12;;;;;;;12.87;9.23;;;2.30;96.00;;;;;;5062319;28;20231;-86
2021/11/23 06:30:39;;;;;;;12.37;9.17;;;2.40;96.20;;;;;;5061994;28;20313;-87
2021/11/23 06:33:06;;;;;;;12.83;9.27;;;2.40;95.10;;;;;;5063024;28;20617;-85
2021/11/23 06:35:33;;;;;;;12.37;9.63;;;2.40;95.00;;;;;;5059180;28;20697;-86
2021/11/23 06:38:00;;;;;;;12.03;9.17;;;2.30;95.10;;;;;;5061619;28;20204;-86
2021/11/23 06:40:29;;;;;;;14.00;9.00;;;2.30;95.30;;;;;;5061181;28;20229;-85
2021/11/23 06:42:56;;;;;;;11.83;9.27;;;2.30;95.10;;;;;;5058806;28;20217;-85
2021/11/23 06:45:23;;;;;;;11.70;9.40;;;2.30;95.30;;;;;;5059495;28;20240;-87
2021/11/23 06:47:50;;;;;;;12.73;9.00;;;2.30;95.50;;;;;;5058514;28;20202;-86
2021/11/23 06:50:17;;;;;;;12.63;9.73;;;2.30;95.60;;;;;;5062792;28;20287;-86
2021/11/23 06:52:44;;;;;;;12.23;9.87;;;2.30;95.10;;;;;;5053051;28;20210;-86
2021/11/23 06:55:11;;;;;;;11.03;8.43;;;2.30;95.30;;;;;;5061150;28;20308;-86
2021/11/23 06:57:39;;;;;;;12.47;9.87;;;2.30;95.30;;;;;;5067514;28;20564;-87
2021/11/23 07:00:09;;;;;;;12.47;9.10;;;2.40;95.10;;;;;;5061938;28;20229;-86
2021/11/23 07:02:36;;;;;;;11.63;9.37;;;2.40;95.10;;;;;;5068562;28;20211;-87
2021/11/23 07:05:03;;;;;;;15.20;9.70;;;2.30;95.20;;;;;;5066389;28;20234;-86
2021/11/23 07:07:30;;;;;;;14.90;9.97;;;2.30;95.20;;;;;;5062163;28;20216;-86
2021/11/23 07:09:58;;;;;;;13.57;9.50;;;2.30;95.40;;;;;;5066886;28;20221;-87
2021/11/23 07:12:24;;;;;;;12.47;9.50;;;2.30;95.60;;;;;;5066784;28;20236;-87
2021/11/23 07:14:53;;;;;;;13.07;9.60;;;2.40;95.60;;;;;;5068070;28;20312;-87
2021/11/23 07:17:20;;;;;;;11.53;9.53;;;2.40;95.30;;;;;;5068225;28;20683;-86
2021/11/23 07:19:49;;;;;;;12.70;9.57;;;2.50;95.40;;;;;;5065454;28;20239;-86
2021/11/23 07:22:16;;;;;;;11.30;9.00;;;2.50;95.00;;;;;;5066181;28;20206;-86
2021/11/23 07:24:44;;;;;;;13.63;10.63;;;2.60;95.10;;;;;;5061325;28;20576;-86
2021/11/23 07:27:11;;;;;;;13.83;9.70;;;2.50;95.10;;;;;;5065551;28;20205;-85
2021/11/23 07:29:38;;;;;;;13.07;9.70;;;2.60;94.90;;;;;;5058310;28;20198;-86
2021/11/23 07:32:08;;;;;;;12.37;9.23;;;2.70;95.10;;;;;;5067313;28;20706;-86
2021/11/23 07:34:35;;;;;;;12.83;8.93;;;2.70;94.60;;;;;;5064861;28;20214;-86
2021/11/23 07:37:02;;;;;;;13.67;9.80;;;2.80;94.60;;;;;;5064176;28;20201;-86
2021/11/23 07:39:29;;;;;;;15.50;9.03;;;2.80;94.60;;;;;;5067516;28;20201;-86
2021/11/23 07:41:56;;;;;;;13.30;9.20;;;2.70;94.60;;;;;;5060571;28;20201;-87
2021/11/23 07:44:23;;;;;;;13.03;8.87;;;2.70;94.60;;;;;;5059657;28;20222;-85
2021/11/23 07:46:50;;;;;;;12.83;8.93;;;2.80;94.60;;;;;;5067086;28;20262;-86
2021/11/23 07:49:18;;;;;;;11.30;8.90;;;2.80;94.60;;;;;;5060350;28;20205;-86
2021/11/23 07:51:46;;;;;;;12.40;9.63;;;2.90;94.60;;;;;;5067381;28;20287;-86
2021/11/23 07:54:14;;;;;;;12.37;8.43;;;3.00;94.40;;;;;;5061328;28;20571;-86
2021/11/23 07:56:41;;;;;;;11.77;9.23;;;3.00;94.40;;;;;;5066231;28;20220;-85
2021/11/23 07:59:10;;;;;;;10.73;8.80;;;3.00;94.00;;;;;;5060497;28;20640;-86
2021/11/23 08:01:38;;;;;;;11.57;9.10;;;3.00;94.00;;;;;;5056931;28;20558;-86
2021/11/23 08:04:05;;;;;;;13.33;9.40;;;3.10;93.90;;;;;;5068454;28;20309;-86
2021/11/23 08:06:33;;;;;;;11.53;9.33;;;3.10;93.90;;;;;;5059220;28;20715;-86
2021/11/23 08:09:00;;;;;;;14.73;8.77;;;3.00;94.00;;;;;;5057498;28;20288;-86
2021/11/23 08:11:28;;;;;;;11.57;9.40;;;3.00;93.90;;;;;;5060746;28;20236;-86
2021/11/23 08:13:55;;;;;;;15.17;9.40;;;3.00;93.90;;;;;;5065399;28;21634;-86
2021/11/23 08:16:23;;;;;;;13.93;9.70;;;3.00;94.00;;;;;;5062848;28;20231;-86
2021/11/23 08:18:50;;;;;;;15.43;8.80;;;2.90;94.00;;;;;;5063328;28;20216;-86
2021/11/23 08:21:17;;;;;;;11.27;9.17;;;3.10;93.70;;;;;;5055511;28;20481;-86
2021/11/23 08:23:46;;;;;;;10.03;8.30;;;3.10;93.70;;;;;;5064408;28;20193;-86
2021/11/23 08:26:13;;;;;;;11.83;9.07;;;3.10;94.10;;;;;;5062784;28;20240;-86
2021/11/23 08:28:40;;;;;;;12.93;9.10;;;3.30;93.30;;;;;;5063790;28;20537;-87
2021/11/23 08:31:08;;;;;;;11.70;9.23;;;3.30;93.20;;;;;;5061510;28;20981;-86
2021/11/23 08:33:35;;;;;;;9.50;8.23;;;3.30;93.10;;;;;;5060462;28;20298;-86
2021/11/23 08:36:02;;;;;;;10.73;8.90;;;3.40;93.30;;;;;;5061759;28;20636;-86
2021/11/23 08:38:29;;;;;;;10.67;8.37;;;3.60;93.10;;;;;;5062589;28;20745;-87
2021/11/23 08:40:57;;;;;;;12.37;8.77;;;3.80;92.60;;;;;;5064946;28;20229;-86
2021/11/23 08:43:24;;;;;;;12.13;8.80;;;3.80;92.30;;;;;;5063480;28;20228;-86
2021/11/23 08:45:51;;;;;;;10.53;8.43;;;3.80;92.10;;;;;;5063696;28;20232;-86
2021/11/23 08:48:18;;;;;;;12.70;9.17;;;3.90;92.20;;;;;;5065877;28;20284;-86
2021/11/23 08:50:46;;;;;;;10.57;9.07;;;3.90;91.80;;;;;;5060968;28;20315;-86
2021/11/23 08:53:13;;;;;;;12.20;8.77;;;4.00;91.80;;;;;;5065210;28;20198;-86
2021/11/23 08:55:40;;;;;;;11.47;9.33;;;4.10;91.50;;;;;;5057774;28;20227;-86
2021/11/23 08:58:11;;;;;;;10.90;8.67;;;4.10;91.50;;;;;;5061155;28;20280;-87
2021/11/23 09:00:38;;;;;;;10.83;8.80;;;4.20;91.60;;;;;;5065254;28;20648;-87
2021/11/23 09:03:06;;;;;;;10.60;8.50;;;4.30;91.10;;;;;;5067501;28;20205;-86
2021/11/23 09:05:36;;;;;;;13.10;8.90;;;4.40;90.80;;;;;;5062808;28;20221;-86
2021/11/23 09:08:04;;;;;;;10.07;8.73;;;4.50;90.90;;;;;;5062352;28;20228;-86
2021/11/23 09:10:34;;;;;;;10.87;9.37;;;4.30;91.30;;;;;;5061226;28;20223;-88
2021/11/23 09:13:02;;;;;;;10.60;9.07;;;4.50;92.00;;;;;;5061768;28;20224;-89
2021/11/23 09:15:31;;;;;;;11.00;9.20;;;4.90;90.20;;;;;;5065049;28;20239;-89
2021/11/23 09:17:59;;;;;;;10.50;8.30;;;5.20;89.10;;;;;;5066581;28;20208;-87
2021/11/23 09:20:33;;;;;;;12.77;9.60;;;5.30;87.80;;;;;;5072948;28;20229;-88
2021/11/23 09:23:00;;;;;;;11.17;9.00;;;5.40;87.20;;;;;;5071660;28;20314;-88
2021/11/23 09:25:27;;;;;;;10.17;8.17;;;5.40;86.00;;;;;;5068249;28;20235;-89
2021/11/23 09:27:55;;;;;;;13.17;9.33;;;5.40;86.40;;;;;;5065343;28;20202;-88
2021/11/23 09:30:21;;;;;;;10.93;9.23;;;5.30;86.80;;;;;;5066657;28;20224;-88
2021/11/23 09:32:50;;;;;;;11.23;8.30;;;5.30;86.90;;;;;;5066847;28;20580;-88
2021/11/23 09:35:18;;;;;;;10.77;8.83;;;5.20;87.80;;;;;;5063584;28;20233;-89
2021/11/23 09:37:45;;;;;;;10.23;8.70;;;5.30;87.50;;;;;;5066301;28;20593;-87
2021/11/23 09:40:12;;;;;;;9.50;8.50;;;5.40;87.30;;;;;;5065417;28;20221;-88
2021/11/23 09:42:39;;;;;;;10.30;8.50;;;5.60;84.30;;;;;;5062550;28;20656;-88
2021/11/23 09:45:08;;;;;;;12.47;9.13;;;5.60;83.80;;;;;;5067919;28;20598;-88
2021/11/23 09:47:36;;;;;;;11.77;9.87;;;5.50;85.20;;;;;;5066770;28;20743;-88
2021/11/23 09:50:05;;;;;;;13.10;9.17;;;5.50;85.90;;;;;;5069823;28;20228;-88
2021/11/23 09:52:33;;;;;;;12.53;10.43;;;5.70;84.90;;;;;;5067887;28;20229;-87
2021/11/23 09:55:00;;;;;;;15.90;11.63;;;5.40;85.30;;;;;;5059554;28;20598;-88
2021/11/23 09:57:27;;;;;;;12.47;11.07;;;5.50;86.40;;;;;;5065366;28;20577;-88
2021/11/23 09:59:54;;;;;;;13.30;11.43;;;5.50;85.10;;;;;;5070182;28;20713;-86
2021/11/23 10:02:26;;;;;;;14.00;12.03;;;5.10;87.60;;;;;;5067406;28;20273;-86
2021/11/23 10:04:59;;;;;;;13.33;11.93;;;4.90;89.00;;;;;;5068425;28;20232;-86
2021/11/23 10:07:37;;;;;;;15.40;12.00;;;5.00;89.00;;;;;;5068634;28;20209;-85
2021/11/23 10:10:13;;;;;;;16.73;11.80;;;4.70;90.50;;;;;;5065725;28;20229;-86
2021/11/23 10:12:50;;;;;;;12.43;10.67;;;5.00;90.40;;;;;;5066422;28;20227;-89
2021/11/23 10:15:19;;;;;;;12.67;10.93;;;5.30;89.10;;;;;;5065705;28;20232;-88
2021/11/23 10:17:48;;;;;;;13.50;11.70;;;5.40;89.20;;;;;;5062346;28;20202;-88
2021/11/23 10:20:30;;;;;;;13.30;9.77;;;5.40;89.20;;;;;;5063492;28;20228;-89
2021/11/23 10:23:10;;;;;;;11.53;9.37;;;5.20;89.10;;;;;;5053600;28;20598;-89
2021/11/23 10:25:37;;;;;;;14.20;9.80;;;5.20;89.10;;;;;;5058116;28;20228;-89
2021/11/23 10:28:04;;;;;;;11.87;9.27;;;5.30;89.10;;;;;;5063898;28;20205;-88
2021/11/23 10:30:31;;;;;;;12.90;10.07;;;5.20;89.10;;;;;;5061399;28;20590;-88
2021/11/23 10:32:59;;;;;;;12.33;9.07;;;5.30;89.20;;;;;;5062743;28;20653;-88
2021/11/23 10:35:28;;;;;;;13.73;9.33;;;5.20;89.10;;;;;;5064388;28;20229;-88
2021/11/23 10:37:55;;;;;;;10.83;9.73;;;5.40;89.30;;;;;;5066154;28;20221;-88
2021/11/23 10:40:28;;;;;;;10.63;9.43;;;5.50;87.80;;;;;;5058708;28;20236;-89
2021/11/23 10:42:57;;;;;;;11.70;9.77;;;5.40;88.70;;;;;;5065338;28;20208;-88
2021/11/23 10:45:25;;;;;;;10.80;9.70;;;5.40;87.70;;;;;;5070570;28;20283;-88
2021/11/23 10:47:52;;;;;;;13.47;9.90;;;5.50;87.30;;;;;;5065729;28;20216;-88
2021/11/23 10:50:21;;;;;;;11.77;9.43;;;5.40;87.30;;;;;;5067350;28;20228;-88
2021/11/23 10:52:51;;;;;;;12.73;10.07;;;5.40;88.50;;;;;;5066777;28;20202;-88
2021/11/23 10:55:31;;;;;;;14.47;10.43;;;5.50;87.40;;;;;;5080003;28;20225;-88
2021/11/23 10:58:00;;;;;;;12.70;9.83;;;5.50;87.10;;;;;;5061580;28;20209;-88
2021/11/23 11:00:30;;;;;;;11.53;10.20;;;5.50;87.40;;;;;;5064119;28;20253;-88
2021/11/23 11:03:01;;;;;;;12.50;10.80;;;5.60;86.90;;;;;;5076544;28;20219;-88
2021/11/23 11:05:28;;;;;;;11.57;9.23;;;5.40;87.70;;;;;;5068738;28;20315;-88
2021/11/23 11:07:58;;;;;;;14.30;10.73;;;5.50;86.70;;;;;;5074177;28;20223;-89
2021/11/23 11:10:25;;;;;;;13.07;10.07;;;5.30;87.80;;;;;;5064938;28;20316;-88
2021/11/23 11:12:54;;;;;;;12.60;11.03;;;5.30;88.60;;;;;;5068719;28;20208;-88
2021/11/23 11:15:26;;;;;;;14.33;10.33;;;5.30;89.00;;;;;;5070506;28;20588;-88
2021/11/23 11:17:53;;;;;;;16.37;11.03;;;5.40;88.00;;;;;;5061896;28;20313;-88
2021/11/23 11:20:36;;;;;;;12.03;10.77;;;5.50;87.00;;;;;;5062990;28;20225;-87
2021/11/23 11:23:08;;;;;;;11.47;10.27;;;5.50;86.40;;;;;;5057908;28;20614;-88
2021/11/23 11:26:06;;;;;;;11.63;10.13;;;5.60;88.00;;;;;;5063607;28;20229;-89
2021/11/23 11:28:48;;;;;;;14.47;10.60;;;5.90;84.20;;;;;;5044338;28;20208;-89
2021/11/23 11:31:46;;;;;;;11.13;9.93;;;5.60;85.10;;;;;;5059670;28;20250;-88
2021/11/23 11:34:22;;;;;;;12.37;10.20;;;5.70;85.10;;;;;;5063303;28;20209;-88
2021/11/23 11:36:57;;;;;;;14.50;11.13;;;5.70;83.70;;;;;;5060037;28;20564;-88
2021/11/23 11:39:48;;;;;;;11.90;10.70;;;5.70;84.00;;;;;;5063700;28;20208;-88
2021/11/23 11:42:49;;;;;;;11.67;10.47;;;5.70;85.00;;;;;;5064025;28;20225;-89
2021/11/23 11:45:19;;;;;;;13.70;10.80;;;5.60;85.00;;;;;;5059815;28;20256;-88
2021/11/23 11:47:47;;;;;;;11.63;10.43;;;5.60;84.80;;;;;;5063570;28;20683;-88
2021/11/23 11:50:20;;;;;;;12.17;10.63;;;5.60;84.80;;;;;;5060356;28;20229;-87
2021/11/23 11:53:07;;;;;;;11.87;10.67;;;5.70;84.90;;;;;;5062622;28;20587;-88
2021/11/23 11:55:36;;;;;;;12.80;11.10;;;5.40;85.60;;;;;;5057468;28;20225;-88
2021/11/23 11:58:05;;;;;;;13.37;10.90;;;5.70;85.40;;;;;;5063736;28;20198;-87
2021/11/23 12:00:36;;;;;;;12.87;11.20;;;6.00;86.00;;;;;;5061135;28;20235;-88
2021/11/23 12:03:37;;;;;;;11.73;10.53;;;6.10;84.60;;;;;;5060541;28;20204;-91
2021/11/23 12:06:07;;;;;;;11.53;10.27;;;6.30;82.20;;;;;;5062759;28;20239;-90
2021/11/23 12:08:37;;;;;;;11.47;10.03;;;6.20;82.30;;;;;;5060153;28;20209;-90
2021/11/23 12:11:09;;;;;;;13.20;10.17;;;6.10;83.60;;;;;;5066718;28;20234;-91
2021/11/23 12:13:45;;;;;;;11.50;10.23;;;5.90;82.50;;;;;;5061019;28;20198;-90
2021/11/23 12:16:17;;;;;;;10.90;9.80;;;5.80;84.30;;;;;;5060404;28;20317;-90
2021/11/23 12:19:11;;;;;;;12.17;10.30;;;5.70;84.60;;;;;;5060646;28;20569;-90
2021/11/23 12:21:50;;;;;;;10.90;9.60;;;5.80;85.70;;;;;;5058684;28;20222;-88
2021/11/23 12:24:25;;;;;;;10.60;9.50;;;6.10;84.70;;;;;;5061686;28;20202;-89
2021/11/23 12:26:54;;;;;;;13.77;9.40;;;6.30;82.60;;;;;;5058539;28;20236;-89
2021/11/23 12:29:28;;;;;;;9.73;8.73;;;6.20;82.40;;;;;;5070815;28;20262;-90
2021/11/23 12:31:58;;;;;;;10.27;9.00;;;6.00;83.30;;;;;;5062516;28;20231;-90
2021/11/23 12:34:25;;;;;;;15.83;9.73;;;5.80;84.50;;;;;;5072313;28;20814;-90
2021/11/23 12:36:55;;;;;;;11.50;9.43;;;5.80;85.10;;;;;;5065885;28;20225;-89
2021/11/23 12:39:24;;;;;;;15.00;9.93;;;5.80;85.40;;;;;;5067142;28;20656;-90
2021/11/23 12:41:59;;;;;;;12.77;9.30;;;5.80;86.30;;;;;;5065285;28;20222;-89
2021/11/23 12:44:32;;;;;;;10.10;8.93;;;5.90;86.00;;;;;;5069468;28;20228;-89
2021/11/23 12:47:01;;;;;;;10.17;8.97;;;6.00;85.20;;;;;;5062275;28;20223;-90
2021/11/23 12:49:32;;;;;;;11.30;8.83;;;6.00;84.60;;;;;;5060817;28;20231;-89
2021/11/23 12:52:01;;;;;;;10.13;8.30;;;6.10;83.50;;;;;;5068119;28;20222;-90
2021/11/23 12:54:31;;;;;;;13.43;8.33;;;6.10;83.30;;;;;;5062842;28;20212;-90